Airfield :







YOU CAN JOIN US ON...

 
LOGIN :

Register | Disclaimer

   EN    FR    IT 

 









Legend :    VFR   Marginal VFR   IFR   Intensive IFR   Very Intensive IFR
Visi :
Ceiling :
>= 8 km
>= 3000ft
5 to 8 km
1000 to 3000 ft
1500m to 5 km
500 to 1000 ft
800 to 1500m
200 to 500 ft
< 800m
< 200 ft
Symbols :   Thunderstorms  Fog  Heavy snow  Heavy precipitations  Wind > 20 kt






- Airport Elevation : 175 ft
- IATA code : YLC


CYLC - Kimmirut

CURRENT METAR :
  • 292100Z 06004KT 1SM -SN OVC013 M20/M22 A2983 RMK ST8 2.2/3 MUCH LOOSE LASTSTFD OBS/NXT 301300Z SLP111

EXPIRED METARs :
  • 292000Z 00000KT 1SM -SN OVC018 M20/M22 A2983 RMK SC8 SLP112
  • 291922Z 06004KT 1SM -SN OVC011 M20/M23 A2985 RMK ST8 SLP116
  • 291900Z VRB03KT 6SM -SN BKN045 OVC053 M20/M23 A2985 RMK SC6SC2 SLP118

TAF N/A



MET'MAP, your aeronautical weather chart ! - Copyright ORBIFLY December 2007 - Disclaimer

ORBIFLY MET'MAP TEAM :

Programming & Development : Alexandra Zaïnal
Concept & original design : Baudouin d'Aumeries
Assistance for programming : Marc-Olivier Méhu
Technical & hardware support : Manuel Goepfert

Contact : metmap@orbifly.com




SOURCES & CREDITS :

   NOAA